createdAt,value
2023-03-26T00:02:31.395Z,99201.41
2023-03-26T00:07:30.236Z,99210.31
2023-03-26T00:12:29.102Z,99206.47
2023-03-26T00:17:28.431Z,99217.06
2023-03-26T00:22:27.276Z,99214.13
2023-03-26T00:27:27.719Z,99231.16
2023-03-26T00:32:28.658Z,99228.97
2023-03-26T00:37:27.713Z,99226.50
2023-03-26T00:42:26.683Z,99248.31
2023-03-26T00:47:27.517Z,99228.34
2023-03-26T00:52:28.653Z,99239.97
2023-03-26T00:57:35.835Z,99218.94
2023-03-26T01:02:35.276Z,99214.09
2023-03-26T01:07:35.242Z,99216.56
2023-03-26T01:12:34.290Z,99206.59
2023-03-26T01:17:38.019Z,99209.59
2023-03-26T01:22:37.766Z,99200.47
2023-03-26T01:27:41.163Z,99210.19
2023-03-26T01:32:48.790Z,99191.03
2023-03-26T01:38:10.998Z,99204.44
2023-03-26T01:43:29.241Z,99204.72
2023-03-26T01:48:36.324Z,99203.25
2023-03-26T01:53:41.676Z,99215.16
2023-03-26T01:58:59.730Z,99205.38
2023-03-26T02:04:24.893Z,99207.13
2023-03-26T02:09:27.734Z,99200.59
2023-03-26T02:14:30.311Z,99208.41
2023-03-26T02:19:30.628Z,99210.22
2023-03-26T02:24:29.805Z,99213.47
2023-03-26T02:29:31.555Z,99208.13
2023-03-26T02:34:31.412Z,99208.66
2023-03-26T02:39:30.558Z,99213.28
2023-03-26T02:44:34.813Z,99220.81
2023-03-26T02:49:33.999Z,99231.06
2023-03-26T02:54:34.450Z,99221.84
2023-03-26T02:59:52.881Z,99214.88
2023-03-26T03:05:11.812Z,99209.81
2023-03-26T03:15:40.840Z,99209.31
2023-03-26T03:20:39.924Z,99206.88
2023-03-26T03:25:38.866Z,99213.84
2023-03-26T03:30:37.988Z,99214.53
2023-03-26T03:35:52.961Z,99216.09
2023-03-26T03:40:54.366Z,99220.16
2023-03-26T03:45:57.138Z,99218.22
2023-03-26T03:51:25.509Z,99217.81
2023-03-26T03:56:48.715Z,99212.78
2023-03-26T04:02:05.994Z,99209.19
2023-03-26T04:07:17.395Z,99203.84
2023-03-26T04:12:34.869Z,99196.91
2023-03-26T04:17:42.403Z,99203.75
2023-03-26T04:22:44.056Z,99201.81
2023-03-26T04:27:46.212Z,99186.19
2023-03-26T04:33:17.138Z,99181.69
2023-03-26T04:38:18.647Z,99183.53
2023-03-26T04:43:20.953Z,99191.34
2023-03-26T04:48:55.263Z,99187.00
2023-03-26T04:53:58.956Z,99189.78
2023-03-26T04:59:26.385Z,99182.56
2023-03-26T05:04:29.606Z,99185.44
2023-03-26T05:09:30.130Z,99184.59
2023-03-26T05:14:46.930Z,99173.56
2023-03-26T05:19:52.164Z,99183.91
2023-03-26T05:24:51.530Z,99175.63
2023-03-26T05:29:50.341Z,99180.75
2023-03-26T05:34:49.129Z,99186.00
2023-03-26T05:39:48.105Z,99184.78
2023-03-26T05:45:07.955Z,99183.88
2023-03-26T05:50:08.417Z,99183.56
2023-03-26T05:55:10.411Z,99195.28
2023-03-26T06:00:27.726Z,99194.09
2023-03-26T06:05:32.636Z,99205.91
2023-03-26T06:11:08.295Z,99203.53
2023-03-26T06:16:26.013Z,99200.56
2023-03-26T06:21:51.937Z,99195.78
2023-03-26T06:26:54.349Z,99209.94
2023-03-26T06:32:20.203Z,99201.34
2023-03-26T06:37:25.964Z,99195.09
2023-03-26T06:43:06.788Z,99203.56
2023-03-26T06:48:08.375Z,99189.00
2023-03-26T06:53:17.213Z,99189.88
2023-03-26T06:58:30.393Z,99199.91
2023-03-26T07:03:47.896Z,99191.81
2023-03-26T07:09:05.844Z,99198.50
2023-03-26T07:14:13.956Z,99201.78
2023-03-26T07:19:19.991Z,99197.84
2023-03-26T07:24:20.398Z,99187.25
2023-03-26T07:29:36.654Z,99193.00
2023-03-26T07:35:02.067Z,99190.84
2023-03-26T07:40:44.675Z,99184.41
2023-03-26T07:46:02.564Z,99185.75
2023-03-26T07:51:25.046Z,99186.28
2023-03-26T07:56:42.889Z,99195.72
2023-03-26T08:02:18.496Z,99187.13
2023-03-26T08:07:27.066Z,99171.78
2023-03-26T08:13:07.112Z,99178.00
2023-03-26T08:18:38.932Z,99180.72
2023-03-26T08:24:00.895Z,99181.81
2023-03-26T08:29:27.445Z,99166.38
2023-03-26T08:34:26.462Z,99172.34
2023-03-26T08:39:25.536Z,99169.88
2023-03-26T08:45:08.958Z,99172.06
2023-03-26T08:50:10.587Z,99167.47
2023-03-26T08:55:37.571Z,99168.75
2023-03-26T09:01:04.248Z,99156.56
2023-03-26T09:06:15.480Z,99153.59
2023-03-26T09:11:51.288Z,99146.09
2023-03-26T09:17:01.908Z,99141.53
2023-03-26T09:22:03.698Z,99137.50
2023-03-26T09:27:11.591Z,99142.00
2023-03-26T09:32:44.232Z,99139.47
2023-03-26T09:37:58.307Z,99125.38
2023-03-26T09:43:24.088Z,99108.75
2023-03-26T09:49:21.676Z,99113.41
2023-03-26T09:54:53.243Z,99097.91
2023-03-26T10:00:07.351Z,99102.13
2023-03-26T10:05:41.518Z,99104.13
2023-03-26T10:10:54.699Z,99100.28
2023-03-26T10:16:11.687Z,99095.50
2023-03-26T10:21:35.421Z,99083.16
2023-03-26T10:27:09.364Z,99074.03
2023-03-26T10:32:53.112Z,99058.28
2023-03-26T10:38:13.654Z,99042.94
2023-03-26T10:43:37.551Z,99040.97
2023-03-26T10:48:54.112Z,99032.41
2023-03-26T10:54:23.113Z,99024.22
2023-03-26T10:59:22.416Z,99010.63
2023-03-26T11:04:51.039Z,99010.38
2023-03-26T11:09:52.927Z,98992.03
2023-03-26T11:15:04.144Z,98984.31
2023-03-26T11:20:07.709Z,98971.66
2023-03-26T11:25:18.646Z,98976.41
2023-03-26T11:31:02.353Z,98975.34
2023-03-26T11:36:06.947Z,98960.16
2023-03-26T11:41:16.034Z,98954.34
2023-03-26T11:46:35.507Z,98942.16
2023-03-26T11:51:38.795Z,98941.31
2023-03-26T11:57:05.852Z,98937.50
2023-03-26T12:02:05.532Z,98937.31
2023-03-26T12:07:14.204Z,98936.16
2023-03-26T12:12:13.151Z,98932.56
2023-03-26T12:17:15.093Z,98929.25
2023-03-26T12:22:36.220Z,98927.63
2023-03-26T12:27:38.035Z,98926.22
2023-03-26T12:32:46.109Z,98919.28
2023-03-26T12:37:46.854Z,98914.25
2023-03-26T12:44:46.702Z,98917.53
2023-03-26T12:48:15.801Z,98922.09
2023-03-26T12:53:38.560Z,98916.78
2023-03-26T12:58:51.254Z,98907.66
2023-03-26T13:04:14.204Z,98913.19
2023-03-26T13:09:19.576Z,98898.88
2023-03-26T13:14:28.057Z,98888.97
2023-03-26T13:19:31.045Z,98884.16
2023-03-26T13:24:43.354Z,98880.53
2023-03-26T13:29:56.225Z,98877.16
2023-03-26T13:35:22.421Z,98870.06
2023-03-26T13:40:27.299Z,98868.47
2023-03-26T13:45:47.620Z,98863.63
2023-03-26T13:50:57.274Z,98866.38
2023-03-26T13:55:59.744Z,98884.91
2023-03-26T14:01:05.311Z,98885.25
2023-03-26T14:06:23.352Z,98889.03
2023-03-26T14:11:50.937Z,98898.09
2023-03-26T14:17:03.593Z,98901.41
2023-03-26T14:22:20.742Z,98914.97
2023-03-26T14:27:40.590Z,98894.31
2023-03-26T14:32:59.295Z,98907.31
2023-03-26T14:38:33.031Z,98914.25
2023-03-26T14:43:34.657Z,98900.81
2023-03-26T14:48:36.808Z,98897.28
2023-03-26T14:53:43.636Z,98891.28
2023-03-26T14:59:12.912Z,98892.16
2023-03-26T15:04:41.331Z,98888.72
2023-03-26T15:10:09.611Z,98884.97
2023-03-26T15:15:32.781Z,98872.59
2023-03-26T15:20:50.708Z,98876.19
2023-03-26T15:25:56.901Z,98869.78
2023-03-26T15:31:11.409Z,98868.59
2023-03-26T15:36:28.848Z,98872.88
2023-03-26T15:41:44.341Z,98866.75
2023-03-26T15:46:58.677Z,98873.56
2023-03-26T15:52:20.171Z,98870.31
2023-03-26T15:57:44.748Z,98862.47
2023-03-26T16:02:53.782Z,98864.91
2023-03-26T16:08:04.484Z,98871.91
2023-03-26T16:13:36.794Z,98874.91
2023-03-26T16:18:48.454Z,98877.34
2023-03-26T16:23:48.184Z,98880.84
2023-03-26T16:28:46.923Z,98884.88
2023-03-26T16:34:01.913Z,98880.03
2023-03-26T16:39:02.537Z,98876.53
2023-03-26T16:44:13.931Z,98884.38
2023-03-26T16:49:21.520Z,98888.16
2023-03-26T16:54:39.743Z,98880.59
2023-03-26T16:59:41.173Z,98877.34
2023-03-26T17:04:46.429Z,98873.56
2023-03-26T17:09:51.939Z,98885.16
2023-03-26T17:14:53.838Z,98886.19
2023-03-26T17:20:17.407Z,98890.25
2023-03-26T17:25:35.273Z,98892.19
2023-03-26T17:30:56.736Z,98896.25
2023-03-26T17:36:21.442Z,98898.09
2023-03-26T17:41:49.863Z,98901.31
2023-03-26T17:46:51.161Z,98899.69
2023-03-26T17:52:03.635Z,98903.25
2023-03-26T17:57:10.002Z,98905.63
2023-03-26T18:02:15.998Z,98905.94
2023-03-26T18:07:36.583Z,98913.72
2023-03-26T18:13:02.434Z,98919.41
2023-03-26T18:18:41.062Z,98924.69
2023-03-26T18:23:46.034Z,98917.22
2023-03-26T18:28:54.318Z,98915.00
2023-03-26T18:33:59.235Z,98925.47
2023-03-26T18:38:58.711Z,98919.09
2023-03-26T18:44:05.287Z,98913.41
2023-03-26T18:49:04.345Z,98917.91
2023-03-26T18:54:05.351Z,98910.81
2023-03-26T18:59:06.968Z,98906.50
2023-03-26T19:04:07.983Z,98911.78
2023-03-26T19:09:28.623Z,98906.78
2023-03-26T19:14:35.318Z,98892.47
2023-03-26T19:19:37.567Z,98893.22
2023-03-26T19:24:36.982Z,98887.81
2023-03-26T19:29:36.637Z,98881.28
2023-03-26T19:34:39.684Z,98869.50
2023-03-26T19:39:44.999Z,98868.97
2023-03-26T19:44:44.540Z,98868.97
2023-03-26T19:50:03.964Z,98859.78
2023-03-26T19:55:12.215Z,98852.97
2023-03-26T20:00:14.296Z,98851.94
2023-03-26T20:05:26.151Z,98843.88
2023-03-26T20:10:24.874Z,98834.63
2023-03-26T20:15:27.969Z,98823.88
2023-03-26T20:20:27.661Z,98822.53
2023-03-26T20:25:32.044Z,98817.38
2023-03-26T20:30:37.598Z,98812.53
2023-03-26T20:35:37.804Z,98818.94
2023-03-26T20:40:37.156Z,98816.88
2023-03-26T20:45:35.899Z,98811.13
2023-03-26T20:50:35.963Z,98800.09
2023-03-26T20:55:37.543Z,98806.03
2023-03-26T21:00:37.229Z,98806.81
2023-03-26T21:05:36.037Z,98801.72
2023-03-26T21:10:35.981Z,98795.00
2023-03-26T21:15:35.166Z,98792.03
2023-03-26T21:20:34.821Z,98794.72
2023-03-26T21:26:02.745Z,98802.25
2023-03-26T21:31:01.933Z,98804.16
2023-03-26T21:36:01.905Z,98818.47
2023-03-26T21:41:02.181Z,98823.06
2023-03-26T21:46:01.363Z,98843.22
2023-03-26T21:51:04.463Z,98851.88
2023-03-26T21:56:24.602Z,98857.84
2023-03-26T22:01:34.816Z,98856.22
2023-03-26T22:06:43.833Z,98850.13
2023-03-26T22:11:42.707Z,98844.91
2023-03-26T22:16:41.693Z,98849.75
2023-03-26T22:21:40.445Z,98859.28
2023-03-26T22:26:39.182Z,98845.53
2023-03-26T22:31:39.360Z,98862.09
2023-03-26T22:42:19.486Z,98852.94
2023-03-26T22:47:18.253Z,98851.16
2023-03-26T22:52:17.328Z,98848.06
2023-03-26T22:57:16.477Z,98859.72
2023-03-26T23:02:16.672Z,98857.50
2023-03-26T23:07:15.452Z,98859.22
2023-03-26T23:12:14.326Z,98864.13
2023-03-26T23:17:14.653Z,98862.72
2023-03-26T23:22:13.717Z,98862.47
2023-03-26T23:27:13.044Z,98859.38
2023-03-26T23:32:23.537Z,98866.19
2023-03-26T23:37:23.674Z,98879.91
2023-03-26T23:42:28.750Z,98887.75
2023-03-26T23:47:34.881Z,98894.13
2023-03-26T23:52:33.836Z,98889.94
2023-03-26T23:57:32.700Z,98883.09
